createdAt,value
2022-11-18T00:01:08.422Z,27.42
2022-11-18T00:03:56.098Z,24.60
2022-11-18T00:06:43.901Z,25.70
2022-11-18T00:09:31.542Z,25.60
2022-11-18T00:12:37.493Z,21.60
2022-11-18T00:15:31.474Z,28.10
2022-11-18T00:18:19.493Z,25.38
2022-11-18T00:21:11.122Z,22.23
2022-11-18T00:23:58.779Z,30.83
2022-11-18T00:26:46.414Z,54.42
2022-11-18T00:29:34.136Z,49.30
2022-11-18T00:32:21.736Z,39.58
2022-11-18T00:35:09.684Z,62.78
2022-11-18T00:37:57.398Z,54.92
2022-11-18T00:40:45.154Z,45.70
2022-11-18T00:43:33.736Z,47.40
2022-11-18T00:46:21.460Z,42.28
2022-11-18T00:49:10.365Z,44.28
2022-11-18T00:51:58.068Z,33.30
2022-11-18T00:54:45.660Z,39.35
2022-11-18T00:57:33.450Z,33.17
2022-11-18T01:00:21.156Z,28.80
2022-11-18T01:03:10.487Z,33.40
2022-11-18T01:05:58.163Z,21.52
2022-11-18T01:08:45.932Z,22.27
2022-11-18T01:11:51.703Z,20.85
2022-11-18T01:14:39.416Z,23.52
2022-11-18T01:17:31.227Z,26.70
2022-11-18T01:20:18.986Z,23.05
2022-11-18T01:23:06.601Z,20.02
2022-11-18T01:25:55.438Z,21.13
2022-11-18T01:28:43.439Z,23.95
2022-11-18T01:31:31.103Z,24.80
2022-11-18T01:34:18.855Z,26.85
2022-11-18T01:37:06.616Z,21.35
2022-11-18T01:39:54.363Z,26.92
2022-11-18T01:42:42.054Z,19.35
2022-11-18T01:45:29.670Z,20.63
2022-11-18T01:48:22.973Z,17.00
2022-11-18T01:51:24.843Z,14.10
2022-11-18T01:54:19.528Z,11.30
2022-11-18T01:57:15.077Z,16.52
2022-11-18T02:00:06.448Z,66.47
2022-11-18T02:02:54.934Z,62.00
2022-11-18T02:05:46.815Z,41.22
2022-11-18T02:08:37.749Z,25.13
2022-11-18T02:11:43.856Z,19.30
2022-11-18T02:14:35.511Z,26.50
2022-11-18T02:17:49.194Z,46.33
2022-11-18T02:20:42.315Z,38.15
2022-11-18T02:24:07.612Z,21.02
2022-11-18T02:27:22.791Z,21.83
2022-11-18T02:30:13.957Z,18.23
2022-11-18T02:33:17.685Z,13.98
2022-11-18T02:36:22.227Z,19.02
2022-11-18T02:39:20.371Z,18.33
2022-11-18T02:42:11.387Z,17.75
2022-11-18T02:45:06.185Z,10.30
2022-11-18T02:47:57.776Z,15.23
2022-11-18T02:50:48.257Z,15.35
2022-11-18T02:53:38.592Z,13.02
2022-11-18T02:56:27.762Z,13.23
2022-11-18T02:59:19.726Z,15.60
2022-11-18T03:02:07.661Z,11.75
2022-11-18T03:04:58.716Z,8.15
2022-11-18T03:07:51.892Z,6.95
2022-11-18T03:11:12.921Z,6.18
2022-11-18T03:14:15.194Z,7.18
2022-11-18T03:17:10.773Z,12.07
2022-11-18T03:20:28.201Z,11.38
2022-11-18T03:23:28.274Z,29.55
2022-11-18T03:26:29.533Z,37.80
2022-11-18T03:29:33.155Z,13.48
2022-11-18T03:32:27.364Z,28.13
2022-11-18T03:35:25.121Z,10.65
2022-11-18T03:38:19.199Z,20.23
2022-11-18T03:41:10.621Z,16.65
2022-11-18T03:44:04.938Z,12.77
2022-11-18T03:47:02.627Z,46.60
2022-11-18T03:50:06.237Z,25.35
2022-11-18T03:52:55.499Z,20.92
2022-11-18T03:55:49.294Z,11.73
2022-11-18T03:59:04.322Z,15.32
2022-11-18T04:02:13.607Z,23.55
2022-11-18T04:05:04.369Z,30.85
2022-11-18T04:07:56.046Z,27.45
2022-11-18T04:11:00.952Z,30.85
2022-11-18T04:13:48.769Z,24.48
2022-11-18T04:16:42.437Z,26.25
2022-11-18T04:19:30.077Z,20.45
2022-11-18T04:22:19.483Z,22.50
2022-11-18T04:25:07.367Z,28.05
2022-11-18T04:27:55.021Z,47.42
2022-11-18T04:30:42.660Z,37.38
2022-11-18T04:33:30.353Z,42.03
2022-11-18T04:36:18.017Z,32.15
2022-11-18T04:39:06.164Z,20.02
2022-11-18T04:41:56.363Z,29.55
2022-11-18T04:44:44.163Z,33.15
2022-11-18T04:47:34.467Z,27.65
2022-11-18T04:50:22.278Z,28.25
2022-11-18T04:53:10.146Z,18.23
2022-11-18T04:56:04.207Z,19.25
2022-11-18T04:58:51.932Z,33.75
2022-11-18T05:01:40.117Z,23.00
2022-11-18T05:04:32.913Z,23.42
2022-11-18T05:07:21.238Z,23.70
2022-11-18T05:10:09.562Z,23.13
2022-11-18T05:12:57.279Z,22.27
2022-11-18T05:15:44.953Z,21.98
2022-11-18T05:18:32.740Z,28.67
2022-11-18T05:21:20.460Z,45.03
2022-11-18T05:24:08.519Z,32.78
2022-11-18T05:26:56.216Z,28.52
2022-11-18T05:29:44.232Z,33.83
2022-11-18T05:32:31.826Z,30.20
2022-11-18T05:35:19.529Z,28.98
2022-11-18T05:38:07.080Z,28.77
2022-11-18T05:40:54.781Z,25.73
2022-11-18T05:43:42.326Z,26.02
2022-11-18T05:46:31.771Z,23.77
2022-11-18T05:49:20.637Z,24.35
2022-11-18T05:52:08.587Z,22.88
2022-11-18T05:54:56.255Z,23.48
2022-11-18T05:57:43.982Z,22.65
2022-11-18T06:00:32.397Z,36.42
2022-11-18T06:03:29.306Z,58.97
2022-11-18T06:06:23.146Z,43.60
2022-11-18T06:12:02.421Z,41.95
2022-11-18T06:14:55.359Z,35.22
2022-11-18T06:18:00.720Z,38.03
2022-11-18T06:20:48.418Z,31.08
2022-11-18T06:23:39.543Z,27.63
2022-11-18T06:26:30.081Z,23.80
2022-11-18T06:29:25.998Z,17.92
2022-11-18T06:32:15.926Z,16.35
2022-11-18T06:35:03.702Z,21.98
2022-11-18T06:37:51.495Z,7.78
2022-11-18T06:40:39.080Z,23.63
2022-11-18T06:43:39.122Z,15.15
2022-11-18T06:46:45.433Z,13.77
2022-11-18T06:49:33.373Z,16.05
2022-11-18T06:52:22.864Z,11.27
2022-11-18T06:55:10.597Z,15.07
2022-11-18T06:57:58.281Z,16.60
2022-11-18T07:00:45.973Z,16.95
2022-11-18T07:03:33.938Z,12.23
2022-11-18T07:06:25.781Z,15.10
2022-11-18T07:09:13.488Z,15.45
2022-11-18T07:12:01.727Z,17.65
2022-11-18T07:14:49.475Z,15.10
2022-11-18T07:17:37.322Z,28.90
2022-11-18T07:20:25.055Z,15.95
2022-11-18T07:23:12.914Z,15.07
2022-11-18T07:26:01.215Z,14.15
2022-11-18T07:28:49.358Z,13.60
2022-11-18T07:31:39.258Z,5.28
2022-11-18T07:34:26.905Z,9.77
2022-11-18T07:37:14.614Z,2.47
2022-11-18T07:40:02.431Z,7.70
2022-11-18T07:42:50.134Z,5.07
2022-11-18T07:45:44.036Z,2.88
2022-11-18T07:48:31.726Z,3.97
2022-11-18T07:51:22.148Z,6.97
2022-11-18T07:54:14.485Z,3.10
2022-11-18T07:57:02.209Z,4.97
2022-11-18T07:59:49.862Z,4.60
2022-11-18T08:02:37.698Z,3.75
2022-11-18T08:05:25.736Z,5.43
2022-11-18T08:08:16.424Z,6.97
2022-11-18T08:11:07.700Z,7.35
2022-11-18T08:13:55.508Z,7.70
2022-11-18T08:16:43.397Z,6.10
2022-11-18T08:19:31.084Z,7.60
2022-11-18T08:22:20.926Z,7.30
2022-11-18T08:25:09.387Z,4.13
2022-11-18T08:27:57.113Z,9.00
2022-11-18T08:30:44.839Z,12.45
2022-11-18T08:33:32.516Z,7.90
2022-11-18T08:36:23.060Z,7.90
2022-11-18T08:39:11.988Z,7.60
2022-11-18T08:41:59.844Z,7.85
2022-11-18T08:44:47.439Z,5.38
2022-11-18T08:47:36.000Z,5.90
2022-11-18T08:50:23.615Z,5.32
2022-11-18T08:53:11.292Z,6.53
2022-11-18T08:56:00.643Z,3.83
2022-11-18T08:58:48.807Z,3.83
2022-11-18T09:01:42.184Z,6.03
2022-11-18T09:04:30.235Z,3.38
2022-11-18T09:07:19.446Z,10.85
2022-11-18T09:10:07.735Z,2.10
2022-11-18T09:13:07.104Z,3.25
2022-11-18T09:16:04.500Z,1.85
2022-11-18T09:18:53.030Z,3.17
2022-11-18T09:21:41.115Z,3.50
2022-11-18T09:24:28.795Z,4.78
2022-11-18T09:27:17.567Z,2.85
2022-11-18T09:30:06.564Z,4.05
2022-11-18T09:32:54.232Z,6.35
2022-11-18T09:35:45.362Z,7.28
2022-11-18T09:38:33.374Z,1.80
2022-11-18T09:41:47.032Z,3.20
2022-11-18T09:45:13.149Z,6.68
2022-11-18T09:48:12.390Z,3.42
2022-11-18T09:51:00.744Z,3.72
2022-11-18T09:53:48.483Z,3.65
2022-11-18T09:56:36.376Z,4.05
2022-11-18T09:59:28.076Z,5.00
2022-11-18T10:02:42.209Z,6.22
2022-11-18T10:05:33.507Z,7.97
2022-11-18T10:08:24.191Z,6.20
2022-11-18T10:11:19.293Z,4.50
2022-11-18T10:14:27.449Z,6.68
2022-11-18T10:17:38.626Z,4.88
2022-11-18T10:20:40.783Z,7.80
2022-11-18T10:26:41.034Z,4.28
2022-11-18T10:29:28.768Z,21.73
2022-11-18T10:32:18.603Z,18.27
2022-11-18T10:35:24.878Z,3.95
2022-11-18T10:38:15.544Z,3.05
2022-11-18T10:41:07.031Z,8.30
2022-11-18T10:43:56.531Z,7.63
2022-11-18T10:46:44.213Z,4.65
2022-11-18T10:49:39.008Z,4.78
2022-11-18T10:52:32.475Z,3.45
2022-11-18T10:55:21.774Z,1.70
2022-11-18T10:58:16.361Z,9.25
2022-11-18T11:01:16.495Z,4.65
2022-11-18T11:04:22.763Z,4.22
2022-11-18T11:07:22.474Z,1.40
2022-11-18T11:10:16.431Z,10.02
2022-11-18T11:13:13.624Z,5.65
2022-11-18T11:16:05.209Z,0.77
2022-11-18T11:19:00.365Z,0.38
2022-11-18T11:21:48.028Z,1.58
2022-11-18T11:24:35.899Z,12.95
2022-11-18T11:31:13.152Z,2.05
2022-11-18T11:34:12.238Z,7.72
2022-11-18T11:37:13.273Z,0.88
2022-11-18T11:40:00.866Z,2.95
2022-11-18T11:43:06.573Z,1.52
2022-11-18T11:46:19.552Z,4.03
2022-11-18T11:49:29.978Z,1.77
2022-11-18T11:52:30.000Z,2.15
2022-11-18T11:55:32.404Z,3.03
2022-11-18T11:58:30.165Z,1.38
2022-11-18T12:01:43.821Z,2.08
2022-11-18T12:04:51.082Z,1.85
2022-11-18T12:08:03.605Z,4.13
2022-11-18T12:10:58.615Z,1.27
2022-11-18T12:14:05.371Z,3.75
2022-11-18T12:17:00.400Z,3.13
2022-11-18T12:19:48.221Z,2.33
2022-11-18T12:23:24.423Z,3.17
2022-11-18T12:26:12.350Z,1.50
2022-11-18T12:29:20.021Z,2.47
2022-11-18T12:32:28.939Z,1.23
2022-11-18T12:35:16.892Z,3.22
2022-11-18T12:38:04.725Z,4.35
2022-11-18T12:40:53.267Z,2.63
2022-11-18T12:44:01.484Z,3.78
2022-11-18T12:46:50.562Z,3.03
2022-11-18T12:49:38.209Z,8.07
2022-11-18T12:52:31.700Z,3.53
2022-11-18T12:55:25.707Z,1.13
2022-11-18T12:58:27.006Z,5.38
2022-11-18T13:01:19.242Z,12.32
2022-11-18T13:04:14.812Z,3.00
2022-11-18T13:07:04.283Z,6.10
2022-11-18T13:09:52.106Z,7.65
2022-11-18T13:12:40.512Z,7.68
2022-11-18T13:15:46.645Z,5.53
2022-11-18T13:18:34.878Z,9.07
2022-11-18T13:21:43.659Z,11.95
2022-11-18T13:24:31.379Z,16.23
2022-11-18T13:27:26.212Z,7.78
2022-11-18T13:30:15.415Z,11.52
2022-11-18T13:33:04.061Z,17.45
2022-11-18T13:35:51.848Z,16.77
2022-11-18T13:38:41.701Z,15.38
2022-11-18T13:41:34.809Z,19.52
2022-11-18T13:44:26.008Z,7.57
2022-11-18T13:47:29.093Z,20.95
2022-11-18T13:50:37.669Z,21.50
2022-11-18T13:53:30.102Z,7.13
2022-11-18T13:56:23.805Z,10.88
2022-11-18T13:59:24.090Z,13.63
2022-11-18T14:02:14.131Z,10.45
2022-11-18T14:05:02.128Z,8.20
2022-11-18T14:08:23.336Z,6.45
2022-11-18T14:11:11.401Z,8.80
2022-11-18T14:14:00.068Z,15.32
2022-11-18T14:16:47.919Z,9.40
2022-11-18T14:19:37.024Z,15.38
2022-11-18T14:22:27.272Z,16.58
2022-11-18T14:25:17.256Z,11.38
2022-11-18T14:28:19.904Z,8.27
2022-11-18T14:31:13.550Z,6.72
2022-11-18T14:34:25.111Z,4.07
2022-11-18T14:37:14.917Z,10.10
2022-11-18T14:40:02.691Z,33.67
2022-11-18T14:42:50.467Z,22.52
2022-11-18T14:45:39.029Z,21.98
2022-11-18T14:48:35.538Z,28.45
2022-11-18T14:51:31.034Z,31.95
2022-11-18T14:54:26.479Z,28.77
2022-11-18T14:57:19.535Z,54.60
2022-11-18T15:00:08.144Z,49.58
2022-11-18T15:02:56.091Z,48.85
2022-11-18T15:05:44.187Z,41.97
2022-11-18T15:08:32.232Z,48.65
2022-11-18T15:11:20.687Z,35.65
2022-11-18T15:14:08.559Z,20.85
2022-11-18T15:16:56.386Z,38.22
2022-11-18T15:19:44.088Z,47.08
2022-11-18T15:22:31.778Z,28.05
2022-11-18T15:25:20.618Z,25.60
2022-11-18T15:28:11.059Z,22.35
2022-11-18T15:30:59.016Z,17.40
2022-11-18T15:33:47.522Z,10.30
2022-11-18T15:36:35.204Z,7.30
2022-11-18T15:39:26.715Z,28.95
2022-11-18T15:42:16.942Z,30.60
2022-11-18T15:45:08.513Z,10.75
2022-11-18T15:47:56.264Z,20.55
2022-11-18T15:50:43.975Z,16.40
2022-11-18T15:53:34.147Z,12.27
2022-11-18T15:56:26.389Z,15.55
2022-11-18T15:59:15.368Z,24.88
2022-11-18T16:02:03.008Z,15.43
2022-11-18T16:04:50.715Z,19.25
2022-11-18T16:07:41.432Z,18.60
2022-11-18T16:10:47.736Z,19.83
2022-11-18T16:13:39.967Z,19.33
2022-11-18T16:16:28.466Z,20.20
2022-11-18T16:19:18.188Z,26.45
2022-11-18T16:22:06.886Z,20.00
2022-11-18T16:24:54.492Z,19.15
2022-11-18T16:27:42.213Z,18.38
2022-11-18T16:30:48.386Z,21.80
2022-11-18T16:33:39.453Z,36.13
2022-11-18T16:36:27.964Z,54.88
2022-11-18T16:39:18.606Z,29.42
2022-11-18T16:42:08.662Z,43.47
2022-11-18T16:44:56.705Z,36.92
2022-11-18T16:47:44.951Z,25.38
2022-11-18T16:50:32.755Z,26.17
2022-11-18T16:53:20.345Z,22.10
2022-11-18T16:56:08.142Z,21.90
2022-11-18T16:59:01.262Z,32.88
2022-11-18T17:01:53.989Z,25.00
2022-11-18T17:04:41.716Z,31.02
2022-11-18T17:07:33.920Z,27.55
2022-11-18T17:10:24.629Z,33.33
2022-11-18T17:13:12.438Z,31.83
2022-11-18T17:16:08.056Z,28.30
2022-11-18T17:18:57.774Z,28.63
2022-11-18T17:21:49.289Z,28.02
2022-11-18T17:24:37.184Z,32.78
2022-11-18T17:27:25.041Z,33.60
2022-11-18T17:30:13.457Z,31.40
2022-11-18T17:33:04.104Z,38.05
2022-11-18T17:36:11.731Z,32.22
2022-11-18T17:39:00.810Z,41.75
2022-11-18T17:42:07.054Z,37.47
2022-11-18T17:44:54.819Z,33.03
2022-11-18T17:47:42.485Z,24.10
2022-11-18T17:50:30.201Z,34.97
2022-11-18T17:53:19.138Z,36.97
2022-11-18T17:56:09.928Z,48.78
2022-11-18T17:58:57.777Z,49.78
2022-11-18T18:01:46.364Z,47.88
2022-11-18T18:04:34.137Z,47.58
2022-11-18T18:07:21.913Z,38.10
2022-11-18T18:10:10.034Z,78.85
2022-11-18T18:13:16.255Z,44.13
2022-11-18T18:16:04.002Z,33.60
2022-11-18T18:18:52.831Z,41.20
2022-11-18T18:21:40.980Z,35.60
2022-11-18T18:24:28.740Z,36.22
2022-11-18T18:27:16.522Z,36.13
2022-11-18T18:30:07.348Z,48.20
2022-11-18T18:32:55.090Z,52.97
2022-11-18T18:35:42.736Z,39.58
2022-11-18T18:38:33.345Z,47.65
2022-11-18T18:41:22.615Z,36.28
2022-11-18T18:44:18.249Z,53.58
2022-11-18T18:47:06.260Z,60.90
2022-11-18T18:49:56.946Z,43.63
2022-11-18T18:52:48.203Z,48.28
2022-11-18T18:55:39.335Z,47.67
2022-11-18T18:58:33.809Z,57.92
2022-11-18T19:01:21.872Z,52.47
2022-11-18T19:04:13.391Z,70.32
2022-11-18T19:07:01.190Z,53.28
2022-11-18T19:09:49.128Z,44.78
2022-11-18T19:12:52.209Z,44.22
2022-11-18T19:15:39.914Z,40.67
2022-11-18T19:18:29.952Z,39.55
2022-11-18T19:21:23.102Z,45.03
2022-11-18T19:24:34.915Z,39.90
2022-11-18T19:27:26.464Z,51.53
2022-11-18T19:30:23.382Z,60.38
2022-11-18T19:33:13.248Z,46.72
2022-11-18T19:36:05.709Z,51.60
2022-11-18T19:38:53.395Z,39.95
2022-11-18T19:41:41.159Z,43.67
2022-11-18T19:44:28.889Z,38.13
2022-11-18T19:47:16.775Z,36.42
2022-11-18T19:50:06.037Z,36.55
2022-11-18T19:52:53.721Z,42.42
2022-11-18T19:55:41.386Z,36.47
2022-11-18T19:58:32.527Z,44.72
2022-11-18T20:01:28.708Z,43.28
2022-11-18T20:04:16.554Z,50.40
2022-11-18T20:07:04.492Z,46.55
2022-11-18T20:09:52.211Z,41.97
2022-11-18T20:12:40.019Z,41.65
2022-11-18T20:15:27.699Z,43.78
2022-11-18T20:18:15.565Z,37.25
2022-11-18T20:21:08.901Z,49.28
2022-11-18T20:24:04.774Z,49.85
2022-11-18T20:26:52.465Z,44.30
2022-11-18T20:29:40.232Z,42.55
2022-11-18T20:32:27.924Z,71.90
2022-11-18T20:35:15.653Z,63.28
2022-11-18T20:38:03.401Z,59.35
2022-11-18T20:40:51.150Z,46.28
2022-11-18T20:43:40.783Z,41.05
2022-11-18T20:46:29.169Z,44.28
2022-11-18T20:49:17.050Z,44.55
2022-11-18T20:52:05.077Z,45.78
2022-11-18T20:54:52.750Z,51.83
2022-11-18T20:57:40.440Z,50.45
2022-11-18T21:00:28.054Z,40.55
2022-11-18T21:03:15.870Z,37.40
2022-11-18T21:06:14.126Z,40.67
2022-11-18T21:09:05.058Z,41.55
2022-11-18T21:11:52.716Z,45.50
2022-11-18T21:14:41.045Z,47.63
2022-11-18T21:17:28.761Z,43.95
2022-11-18T21:20:35.653Z,51.65
2022-11-18T21:23:23.695Z,45.63
2022-11-18T21:26:13.436Z,43.03
2022-11-18T21:29:03.447Z,42.67
2022-11-18T21:31:51.601Z,58.05
2022-11-18T21:34:39.412Z,76.18
2022-11-18T21:37:27.071Z,43.67
2022-11-18T21:40:14.790Z,30.83
2022-11-18T21:43:02.435Z,36.05
2022-11-18T21:45:50.059Z,32.33
2022-11-18T21:48:38.536Z,35.03
2022-11-18T21:51:26.197Z,34.42
2022-11-18T21:54:16.163Z,28.15
2022-11-18T21:57:03.987Z,29.25
2022-11-18T21:59:51.666Z,29.20
2022-11-18T22:02:39.531Z,30.33
2022-11-18T22:05:27.474Z,28.70
2022-11-18T22:08:15.154Z,29.80
2022-11-18T22:11:03.967Z,29.25
2022-11-18T22:13:53.207Z,28.77
2022-11-18T22:16:40.754Z,27.83
2022-11-18T22:23:21.798Z,26.90
2022-11-18T22:26:17.826Z,40.80
2022-11-18T22:29:05.549Z,30.65
2022-11-18T22:31:53.484Z,26.95
2022-11-18T22:34:41.078Z,31.98
2022-11-18T22:37:28.691Z,39.88
2022-11-18T22:40:16.645Z,44.45
2022-11-18T22:43:04.386Z,36.38
2022-11-18T22:46:01.211Z,27.15
2022-11-18T22:48:48.890Z,31.35
2022-11-18T22:51:38.152Z,25.13
2022-11-18T22:54:41.430Z,26.67
2022-11-18T22:57:34.401Z,28.35
2022-11-18T23:00:22.129Z,31.13
2022-11-18T23:03:09.789Z,34.60
2022-11-18T23:05:58.143Z,26.27
2022-11-18T23:08:45.907Z,26.98
2022-11-18T23:11:52.160Z,31.02
2022-11-18T23:14:42.855Z,30.13
2022-11-18T23:17:39.379Z,25.27
2022-11-18T23:20:27.023Z,20.40
2022-11-18T23:23:14.657Z,31.42
2022-11-18T23:26:08.077Z,31.65
2022-11-18T23:28:56.130Z,23.90
2022-11-18T23:31:45.187Z,27.00
2022-11-18T23:34:32.918Z,20.83
2022-11-18T23:37:20.601Z,21.42
2022-11-18T23:40:08.818Z,26.27
2022-11-18T23:42:56.559Z,28.08
2022-11-18T23:45:44.291Z,26.15
2022-11-18T23:48:37.553Z,27.15
2022-11-18T23:51:25.934Z,25.40
2022-11-18T23:54:13.653Z,25.00
2022-11-18T23:57:01.575Z,22.95
2022-11-18T23:59:49.213Z,24.25
